createdAt,value
2019-03-09T00:02:33.540Z,99773.00
2019-03-09T00:05:09.984Z,99772.00
2019-03-09T00:07:39.436Z,99766.00
2019-03-09T00:10:10.495Z,99765.00
2019-03-09T00:12:46.854Z,99770.00
2019-03-09T00:15:22.386Z,99767.00
2019-03-09T00:17:51.904Z,99785.00
2019-03-09T00:20:27.972Z,99768.00
2019-03-09T00:23:15.013Z,99784.00
2019-03-09T00:26:08.654Z,99763.00
2019-03-09T00:28:52.935Z,99765.00
2019-03-09T00:31:45.524Z,99762.00
2019-03-09T00:34:21.535Z,99764.00
2019-03-09T00:36:57.138Z,99761.00
2019-03-09T00:39:33.113Z,99765.00
2019-03-09T00:42:09.876Z,99756.00
2019-03-09T00:44:39.308Z,99753.00
2019-03-09T00:47:15.453Z,99762.00
2019-03-09T00:49:44.961Z,99763.00
2019-03-09T00:52:21.292Z,99760.00
2019-03-09T00:54:57.245Z,99756.00
2019-03-09T00:57:33.586Z,99753.00
2019-03-09T01:00:28.970Z,99762.00
2019-03-09T01:03:05.432Z,99752.00
2019-03-09T01:05:41.678Z,99756.00
2019-03-09T01:08:18.043Z,99755.00
2019-03-09T01:10:47.635Z,99758.00
2019-03-09T01:13:17.146Z,99761.00
2019-03-09T01:15:53.318Z,99755.00
2019-03-09T01:18:28.745Z,99759.00
2019-03-09T01:21:05.142Z,99752.00
2019-03-09T01:23:41.634Z,99760.00
2019-03-09T01:26:11.229Z,99763.00
2019-03-09T01:28:53.634Z,99760.00
2019-03-09T01:31:23.275Z,99661.00
2019-03-09T01:33:59.221Z,99758.00
2019-03-09T01:36:28.684Z,99697.00
2019-03-09T01:39:04.710Z,99750.00
2019-03-09T01:41:34.145Z,99751.00
2019-03-09T01:44:10.563Z,99752.00
2019-03-09T01:46:40.009Z,99740.00
2019-03-09T01:49:09.443Z,99742.00
2019-03-09T01:51:45.465Z,99725.00
2019-03-09T01:54:14.969Z,99735.00
2019-03-09T01:56:57.415Z,99729.00
2019-03-09T01:59:26.924Z,99728.00
2019-03-09T02:02:09.172Z,99715.00
2019-03-09T02:04:38.625Z,99719.00
2019-03-09T02:07:15.200Z,99717.00
2019-03-09T02:09:51.426Z,99709.00
2019-03-09T02:12:27.541Z,99720.00
2019-03-09T02:14:57.132Z,99720.00
2019-03-09T02:17:33.564Z,99720.00
2019-03-09T02:20:03.805Z,99696.00
2019-03-09T02:22:39.815Z,99713.00
2019-03-09T02:25:10.670Z,99712.00
2019-03-09T02:27:47.272Z,99709.00
2019-03-09T02:30:18.622Z,99713.00
2019-03-09T02:32:48.254Z,99720.00
2019-03-09T02:35:25.159Z,99712.00
2019-03-09T02:38:03.005Z,99709.00
2019-03-09T02:40:39.467Z,99712.00
2019-03-09T02:43:08.910Z,99712.00
2019-03-09T02:45:45.027Z,99708.00
2019-03-09T02:48:14.469Z,99697.00
2019-03-09T02:50:52.503Z,99692.00
2019-03-09T02:53:21.939Z,99688.00
2019-03-09T02:55:58.626Z,99683.00
2019-03-09T02:58:28.128Z,99681.00
2019-03-09T03:01:28.575Z,99682.00
2019-03-09T03:03:58.084Z,99672.00
2019-03-09T03:06:27.588Z,99677.00
2019-03-09T03:09:11.402Z,99693.00
2019-03-09T03:11:48.079Z,99675.00
2019-03-09T03:14:24.802Z,99676.00
2019-03-09T03:16:54.246Z,99669.00
2019-03-09T03:19:30.868Z,99674.00
2019-03-09T03:22:00.371Z,99680.00
2019-03-09T03:24:29.798Z,99669.00
2019-03-09T03:27:05.760Z,99659.00
2019-03-09T03:29:35.195Z,99666.00
2019-03-09T03:32:10.988Z,99667.00
2019-03-09T03:34:40.497Z,99645.00
2019-03-09T03:37:16.399Z,99651.00
2019-03-09T03:39:52.455Z,99642.00
2019-03-09T03:42:28.637Z,99643.00
2019-03-09T03:44:58.072Z,99643.00
2019-03-09T03:47:34.163Z,99632.00
2019-03-09T03:50:04.323Z,99620.00
2019-03-09T03:52:40.215Z,99629.00
2019-03-09T03:55:12.751Z,99639.00
2019-03-09T03:57:48.788Z,99619.00
2019-03-09T04:00:18.544Z,99626.00
2019-03-09T04:03:00.654Z,99620.00
2019-03-09T04:05:36.740Z,99620.00
2019-03-09T04:08:13.016Z,99430.00
2019-03-09T04:10:42.592Z,99613.00
2019-03-09T04:13:18.828Z,99604.00
2019-03-09T04:15:48.259Z,99599.00
2019-03-09T04:18:23.712Z,99599.00
2019-03-09T04:21:01.964Z,99598.00
2019-03-09T04:23:37.685Z,99629.00
2019-03-09T04:26:07.192Z,99599.00
2019-03-09T04:28:42.946Z,99598.00
2019-03-09T04:31:12.463Z,99597.00
2019-03-09T04:33:48.554Z,99589.00
2019-03-09T04:36:17.994Z,99580.00
2019-03-09T04:38:47.444Z,99593.00
2019-03-09T04:41:29.585Z,99404.00
2019-03-09T04:44:06.159Z,99580.00
2019-03-09T04:46:35.596Z,99582.00
2019-03-09T04:49:11.807Z,99586.00
2019-03-09T04:51:41.244Z,99577.00
2019-03-09T04:54:17.433Z,99566.00
2019-03-09T04:56:46.934Z,99565.00
2019-03-09T04:59:22.544Z,99547.00
2019-03-09T05:01:52.061Z,99533.00
2019-03-09T05:04:41.725Z,99532.00
2019-03-09T05:07:29.263Z,99534.00
2019-03-09T05:10:28.315Z,99532.00
2019-03-09T05:13:12.234Z,99524.00
2019-03-09T05:15:48.574Z,99521.00
2019-03-09T05:18:18.008Z,99511.00
2019-03-09T05:20:54.520Z,99509.00
2019-03-09T05:23:30.420Z,99494.00
2019-03-09T05:25:59.931Z,99497.00
2019-03-09T05:28:36.289Z,99507.00
2019-03-09T05:31:05.723Z,99498.00
2019-03-09T05:33:41.724Z,99496.00
2019-03-09T05:36:11.237Z,99496.00
2019-03-09T05:38:47.397Z,99486.00
2019-03-09T05:41:22.872Z,99473.00
2019-03-09T05:43:58.571Z,99468.00
2019-03-09T05:46:35.094Z,99469.00
2019-03-09T05:49:11.713Z,99466.00
2019-03-09T05:51:41.169Z,99465.00
2019-03-09T05:54:10.598Z,99469.00
2019-03-09T05:56:52.889Z,99463.00
2019-03-09T05:59:22.332Z,99458.00
2019-03-09T06:01:58.790Z,99450.00
2019-03-09T06:04:35.227Z,99446.00
2019-03-09T06:07:11.656Z,99445.00
2019-03-09T06:09:53.233Z,99443.00
2019-03-09T06:12:22.685Z,99438.00
2019-03-09T06:14:59.317Z,99432.00
2019-03-09T06:17:28.771Z,99425.00
2019-03-09T06:20:04.985Z,99410.00
2019-03-09T06:22:34.425Z,99416.00
2019-03-09T06:25:04.652Z,99416.00
2019-03-09T06:27:46.346Z,99411.00
2019-03-09T06:30:16.103Z,99409.00
2019-03-09T06:33:25.036Z,99406.00
2019-03-09T06:36:26.633Z,99397.00
2019-03-09T06:39:00.341Z,99389.00
2019-03-09T06:41:43.754Z,99391.00
2019-03-09T06:44:13.268Z,99386.00
2019-03-09T06:46:42.725Z,99382.00
2019-03-09T06:49:19.087Z,99386.00
2019-03-09T06:51:54.775Z,99372.00
2019-03-09T06:54:30.561Z,99383.00
2019-03-09T06:57:13.785Z,99369.00
2019-03-09T06:59:45.366Z,99369.00
2019-03-09T07:02:14.803Z,99364.00
2019-03-09T07:04:57.306Z,99347.00
2019-03-09T07:07:41.122Z,99341.00
2019-03-09T07:10:10.711Z,99332.00
2019-03-09T07:12:46.753Z,99326.00
2019-03-09T07:15:28.323Z,99324.00
2019-03-09T07:18:11.328Z,99314.00
2019-03-09T07:20:40.975Z,99308.00
2019-03-09T07:23:10.577Z,99306.00
2019-03-09T07:25:47.001Z,99292.00
2019-03-09T07:28:16.666Z,99286.00
2019-03-09T07:30:53.603Z,99280.00
2019-03-09T07:33:29.260Z,99271.00
2019-03-09T07:35:58.776Z,99264.00
2019-03-09T07:38:35.194Z,99258.00
2019-03-09T07:41:04.857Z,99263.00
2019-03-09T07:43:41.250Z,99265.00
2019-03-09T07:46:17.285Z,99250.00
2019-03-09T07:48:46.732Z,99249.00
2019-03-09T07:51:23.041Z,99243.00
2019-03-09T07:53:58.686Z,99233.00
2019-03-09T07:56:28.289Z,99220.00
2019-03-09T07:59:04.394Z,99212.00
2019-03-09T08:01:33.978Z,99212.00
2019-03-09T08:04:09.670Z,99206.00
2019-03-09T08:06:52.149Z,99188.00
2019-03-09T08:09:28.032Z,99185.00
2019-03-09T08:12:04.394Z,99186.00
2019-03-09T08:14:41.039Z,99182.00
2019-03-09T08:17:16.901Z,99176.00
2019-03-09T08:19:46.418Z,99165.00
2019-03-09T08:22:22.794Z,99165.00
2019-03-09T08:24:52.249Z,99144.00
2019-03-09T08:27:27.795Z,99144.00
2019-03-09T08:29:57.253Z,99137.00
2019-03-09T08:32:33.768Z,99133.00
2019-03-09T08:35:09.801Z,99131.00
2019-03-09T08:37:39.348Z,99130.00
2019-03-09T08:40:21.349Z,99129.00
2019-03-09T08:42:57.776Z,99124.00
2019-03-09T08:45:33.443Z,99120.00
2019-03-09T08:48:09.791Z,99117.00
2019-03-09T08:50:39.446Z,99110.00
2019-03-09T08:53:16.285Z,99108.00
2019-03-09T08:55:45.813Z,99098.00
2019-03-09T08:58:21.935Z,99097.00
2019-03-09T09:00:51.501Z,99084.00
2019-03-09T09:03:33.471Z,99077.00
2019-03-09T09:06:09.493Z,99062.00
2019-03-09T09:08:51.684Z,99057.00
2019-03-09T09:11:33.690Z,99052.00
2019-03-09T09:14:09.457Z,99050.00
2019-03-09T09:16:38.919Z,99038.00
2019-03-09T09:19:14.884Z,99033.00
2019-03-09T09:21:44.417Z,99027.00
2019-03-09T09:24:14.320Z,99018.00
2019-03-09T09:26:50.436Z,99010.00
2019-03-09T09:29:26.454Z,98993.00
2019-03-09T09:31:56.051Z,98991.00
2019-03-09T09:34:32.273Z,98985.00
2019-03-09T09:37:08.258Z,98982.00
2019-03-09T09:39:37.929Z,98967.00
2019-03-09T09:42:14.058Z,98971.00
2019-03-09T09:44:49.836Z,98962.00
2019-03-09T09:47:19.784Z,98956.00
2019-03-09T09:49:55.613Z,98950.00
2019-03-09T09:52:31.668Z,98958.00
2019-03-09T09:55:01.137Z,98947.00
2019-03-09T09:57:37.250Z,98935.00
2019-03-09T10:00:11.669Z,98927.00
2019-03-09T10:02:47.951Z,98932.00
2019-03-09T10:05:25.627Z,98924.00
2019-03-09T10:08:01.493Z,98923.00
2019-03-09T10:10:51.116Z,98912.00
2019-03-09T10:13:20.625Z,98909.00
2019-03-09T10:15:56.624Z,98899.00
2019-03-09T10:18:32.192Z,98895.00
2019-03-09T10:21:01.791Z,98882.00
2019-03-09T10:23:37.736Z,98884.00
2019-03-09T10:26:07.413Z,98866.00
2019-03-09T10:28:43.417Z,98868.00
2019-03-09T10:31:12.969Z,98861.00
2019-03-09T10:33:49.175Z,98853.00
2019-03-09T10:36:18.709Z,98862.00
2019-03-09T10:38:55.850Z,98849.00
2019-03-09T10:41:25.292Z,98841.00
2019-03-09T10:43:54.811Z,98838.00
2019-03-09T10:46:30.577Z,98830.00
2019-03-09T10:49:00.116Z,98833.00
2019-03-09T10:51:35.730Z,98833.00
2019-03-09T10:54:05.338Z,98836.00
2019-03-09T10:56:41.405Z,98822.00
2019-03-09T10:59:17.768Z,98825.00
2019-03-09T11:01:54.280Z,98813.00
2019-03-09T11:04:31.040Z,98814.00
2019-03-09T11:07:00.950Z,98808.00
2019-03-09T11:09:44.336Z,98801.00
2019-03-09T11:12:20.874Z,98803.00
2019-03-09T11:14:57.073Z,98800.00
2019-03-09T11:17:26.786Z,98788.00
2019-03-09T11:20:02.797Z,98783.00
2019-03-09T11:22:39.446Z,98778.00
2019-03-09T11:25:16.574Z,98793.00
2019-03-09T11:27:53.123Z,98777.00
2019-03-09T11:30:27.507Z,98777.00
2019-03-09T11:33:03.923Z,98768.00
2019-03-09T11:35:40.654Z,98770.00
2019-03-09T11:38:22.948Z,98772.00
2019-03-09T11:40:58.535Z,98766.00
2019-03-09T11:43:32.301Z,98771.00
2019-03-09T11:46:01.974Z,98769.00
2019-03-09T11:48:38.552Z,98768.00
2019-03-09T11:51:15.048Z,98776.00
2019-03-09T11:53:44.505Z,98780.00
2019-03-09T11:56:20.317Z,98768.00
2019-03-09T11:58:49.910Z,98760.00
2019-03-09T12:01:19.521Z,98753.00
2019-03-09T12:03:55.514Z,98756.00
2019-03-09T12:06:31.695Z,98754.00
2019-03-09T12:09:07.855Z,98748.00
2019-03-09T12:11:51.146Z,98745.00
2019-03-09T12:14:27.765Z,98742.00
2019-03-09T12:17:04.015Z,98742.00
2019-03-09T12:19:33.443Z,98737.00
2019-03-09T12:22:10.046Z,98734.00
2019-03-09T12:24:39.837Z,98732.00
2019-03-09T12:27:09.431Z,98734.00
2019-03-09T12:29:44.954Z,98731.00
2019-03-09T12:32:14.682Z,98728.00
2019-03-09T12:34:44.187Z,98726.00
2019-03-09T12:37:20.597Z,98766.00
2019-03-09T12:40:02.963Z,98720.00
2019-03-09T12:42:32.410Z,98710.00
2019-03-09T12:45:08.053Z,98709.00
2019-03-09T12:47:37.735Z,98712.00
2019-03-09T12:50:20.377Z,98715.00
2019-03-09T12:52:49.974Z,98708.00
2019-03-09T12:55:26.204Z,98703.00
2019-03-09T12:57:55.645Z,98708.00
2019-03-09T13:00:25.823Z,98709.00
2019-03-09T13:03:02.174Z,98703.00
2019-03-09T13:05:31.680Z,98704.00
2019-03-09T13:08:14.839Z,98693.00
2019-03-09T13:10:51.391Z,98698.00
2019-03-09T13:13:33.989Z,98695.00
2019-03-09T13:16:10.784Z,98693.00
2019-03-09T13:18:40.302Z,98688.00
2019-03-09T13:21:16.757Z,98696.00
2019-03-09T13:23:52.738Z,98682.00
2019-03-09T13:26:29.325Z,98684.00
2019-03-09T13:28:58.831Z,98681.00
2019-03-09T13:31:30.980Z,98682.00
2019-03-09T13:34:07.250Z,98695.00
2019-03-09T13:36:36.901Z,98699.00
2019-03-09T13:39:07.830Z,98696.00
2019-03-09T13:41:44.240Z,98704.00
2019-03-09T13:44:13.693Z,98726.00
2019-03-09T13:46:43.287Z,98723.00
2019-03-09T13:49:19.427Z,98740.00
2019-03-09T13:52:16.332Z,98754.00
2019-03-09T13:54:45.854Z,98728.00
2019-03-09T13:57:21.872Z,98729.00
2019-03-09T13:59:51.400Z,98737.00
2019-03-09T14:02:20.943Z,98732.00
2019-03-09T14:04:57.579Z,98738.00
2019-03-09T14:07:35.036Z,98725.00
2019-03-09T14:10:12.990Z,98732.00
2019-03-09T14:12:56.235Z,98725.00
2019-03-09T14:15:32.116Z,98723.00
2019-03-09T14:18:07.825Z,98724.00
2019-03-09T14:20:37.362Z,98725.00
2019-03-09T14:23:13.457Z,98727.00
2019-03-09T14:25:43.057Z,98736.00
2019-03-09T14:28:12.742Z,98748.00
2019-03-09T14:30:49.368Z,98737.00
2019-03-09T14:33:20.697Z,98750.00
2019-03-09T14:35:56.551Z,98752.00
2019-03-09T14:38:26.066Z,98744.00
2019-03-09T14:41:02.394Z,98745.00
2019-03-09T14:43:31.913Z,98736.00
2019-03-09T14:46:08.036Z,98720.00
2019-03-09T14:48:37.575Z,98727.00
2019-03-09T14:51:08.229Z,98727.00
2019-03-09T14:53:50.541Z,98725.00
2019-03-09T14:56:26.175Z,98731.00
2019-03-09T14:59:01.743Z,98722.00
2019-03-09T15:01:31.195Z,98734.00
2019-03-09T15:04:07.762Z,98746.00
2019-03-09T15:06:37.298Z,98728.00
2019-03-09T15:09:13.739Z,98739.00
2019-03-09T15:11:49.980Z,98736.00
2019-03-09T15:14:32.480Z,98738.00
2019-03-09T15:17:09.058Z,98735.00
2019-03-09T15:19:45.363Z,98763.00
2019-03-09T15:22:21.067Z,98753.00
2019-03-09T15:24:50.582Z,98764.00
2019-03-09T15:27:20.110Z,98788.00
2019-03-09T15:29:55.947Z,98782.00
2019-03-09T15:32:31.787Z,98771.00
2019-03-09T15:35:08.132Z,98792.00
2019-03-09T15:37:44.422Z,98753.00
2019-03-09T15:40:19.361Z,98745.00
2019-03-09T15:43:01.930Z,98744.00
2019-03-09T15:45:33.154Z,98735.00
2019-03-09T15:48:09.784Z,98740.00
2019-03-09T15:50:39.654Z,98736.00
2019-03-09T15:53:16.529Z,98743.00
2019-03-09T15:55:46.248Z,98739.00
2019-03-09T15:58:22.688Z,98746.00
2019-03-09T16:00:52.274Z,98752.00
2019-03-09T16:03:28.890Z,98750.00
2019-03-09T16:06:04.922Z,98763.00
2019-03-09T16:08:40.836Z,98764.00
2019-03-09T16:11:17.489Z,98766.00
2019-03-09T16:13:53.811Z,98773.00
2019-03-09T16:16:29.786Z,98766.00
2019-03-09T16:19:05.753Z,98758.00
2019-03-09T16:21:43.858Z,98765.00
2019-03-09T16:24:13.384Z,98753.00
2019-03-09T16:26:43.045Z,98751.00
2019-03-09T16:29:19.404Z,98752.00
2019-03-09T16:31:49.078Z,98765.00
2019-03-09T16:34:25.303Z,98775.00
2019-03-09T16:37:01.979Z,98765.00
2019-03-09T16:39:31.529Z,98768.00
2019-03-09T16:42:10.727Z,98769.00
2019-03-09T16:44:46.560Z,98772.00
2019-03-09T16:47:16.050Z,98787.00
2019-03-09T16:49:52.409Z,98787.00
2019-03-09T16:52:28.630Z,98804.00
2019-03-09T16:55:04.733Z,98801.00
2019-03-09T16:57:42.551Z,98784.00
2019-03-09T17:00:30.528Z,98774.00
2019-03-09T17:03:00.115Z,98766.00
2019-03-09T17:05:36.349Z,98777.00
2019-03-09T17:08:05.959Z,98774.00
2019-03-09T17:10:41.981Z,98784.00
2019-03-09T17:13:11.674Z,98778.00
2019-03-09T17:16:01.299Z,98776.00
2019-03-09T17:18:30.765Z,98819.00
2019-03-09T17:21:00.300Z,98787.00
2019-03-09T17:23:36.261Z,98767.00
2019-03-09T17:26:07.385Z,98761.00
2019-03-09T17:28:43.062Z,98759.00
2019-03-09T17:31:18.962Z,98750.00
2019-03-09T17:33:55.490Z,98750.00
2019-03-09T17:36:32.049Z,98742.00
2019-03-09T17:39:08.807Z,98737.00
2019-03-09T17:41:38.329Z,98737.00
2019-03-09T17:44:14.387Z,98740.00
2019-03-09T17:46:50.958Z,98736.00
2019-03-09T17:49:27.341Z,98730.00
2019-03-09T17:51:57.042Z,98724.00
2019-03-09T17:54:39.482Z,98729.00
2019-03-09T17:57:09.098Z,98715.00
2019-03-09T17:59:45.170Z,98708.00
2019-03-09T18:02:14.849Z,98714.00
2019-03-09T18:04:44.445Z,98701.00
2019-03-09T18:07:20.444Z,98704.00
2019-03-09T18:09:49.926Z,98709.00
2019-03-09T18:12:25.580Z,98706.00
2019-03-09T18:15:15.065Z,98711.00
2019-03-09T18:17:44.589Z,98691.00
2019-03-09T18:20:27.186Z,98691.00
2019-03-09T18:22:57.010Z,98687.00
2019-03-09T18:25:26.605Z,98683.00
2019-03-09T18:28:02.585Z,98686.00
2019-03-09T18:30:32.176Z,98682.00
2019-03-09T18:33:08.887Z,98681.00
2019-03-09T18:35:38.780Z,98678.00
2019-03-09T18:38:08.503Z,98677.00
2019-03-09T18:40:44.926Z,98674.00
2019-03-09T18:43:21.486Z,98668.00
2019-03-09T18:45:51.086Z,98670.00
2019-03-09T18:48:26.988Z,98656.00
2019-03-09T18:50:56.681Z,98647.00
2019-03-09T18:53:33.343Z,98675.00
2019-03-09T18:56:02.887Z,98642.00
2019-03-09T18:58:38.933Z,98641.00
2019-03-09T19:01:15.360Z,98633.00
2019-03-09T19:03:51.401Z,98628.00
2019-03-09T19:06:20.864Z,98625.00
2019-03-09T19:09:03.409Z,98618.00
2019-03-09T19:11:39.551Z,98612.00
2019-03-09T19:14:15.841Z,98616.00
2019-03-09T19:16:58.731Z,98609.00
2019-03-09T19:19:35.180Z,98604.00
2019-03-09T19:22:12.243Z,98607.00
2019-03-09T19:24:48.021Z,98605.00
2019-03-09T19:27:23.570Z,98598.00
2019-03-09T19:29:53.371Z,98589.00
2019-03-09T19:32:29.632Z,98601.00
2019-03-09T19:35:06.023Z,98591.00
2019-03-09T19:37:41.745Z,98591.00
2019-03-09T19:40:26.431Z,98584.00
2019-03-09T19:43:02.456Z,98580.00
2019-03-09T19:45:38.570Z,98582.00
2019-03-09T19:48:10.980Z,98575.00
2019-03-09T19:50:47.210Z,98580.00
2019-03-09T19:53:23.793Z,98574.00
2019-03-09T19:55:53.248Z,98611.00
2019-03-09T19:58:29.981Z,98570.00
2019-03-09T20:00:59.499Z,98571.00
2019-03-09T20:03:35.378Z,98565.00
2019-03-09T20:06:11.771Z,98555.00
2019-03-09T20:08:41.365Z,98555.00
2019-03-09T20:11:17.789Z,98562.00
2019-03-09T20:13:47.391Z,98549.00
2019-03-09T20:16:29.435Z,98558.00
2019-03-09T20:19:12.543Z,98555.00
2019-03-09T20:21:42.445Z,98561.00
2019-03-09T20:24:18.236Z,98571.00
2019-03-09T20:26:47.682Z,98568.00
2019-03-09T20:29:17.221Z,98562.00
2019-03-09T20:31:53.154Z,98565.00
2019-03-09T20:34:22.627Z,98558.00
2019-03-09T20:36:52.086Z,98557.00
2019-03-09T20:39:27.857Z,98538.00
2019-03-09T20:41:57.374Z,98540.00
2019-03-09T20:44:33.013Z,98535.00
2019-03-09T20:47:02.750Z,98534.00
2019-03-09T20:49:38.827Z,98519.00
2019-03-09T20:52:08.360Z,98508.00
2019-03-09T20:54:44.605Z,98517.00
2019-03-09T20:57:29.256Z,98516.00
2019-03-09T21:00:05.245Z,98510.00
2019-03-09T21:02:41.947Z,98515.00
2019-03-09T21:05:18.605Z,98525.00
2019-03-09T21:07:48.292Z,98508.00
2019-03-09T21:10:26.740Z,98508.00
2019-03-09T21:13:10.623Z,98512.00
2019-03-09T21:15:46.700Z,98501.00
2019-03-09T21:18:32.500Z,98494.00
2019-03-09T21:21:08.564Z,98507.00
2019-03-09T21:23:44.949Z,98490.00
2019-03-09T21:26:21.714Z,98488.00
2019-03-09T21:28:57.926Z,98492.00
2019-03-09T21:31:34.623Z,98488.00
2019-03-09T21:34:16.743Z,98492.00
2019-03-09T21:36:46.330Z,98358.00
2019-03-09T21:39:23.038Z,98482.00
2019-03-09T21:41:52.861Z,98470.00
2019-03-09T21:44:29.493Z,98468.00
2019-03-09T21:47:06.810Z,98454.00
2019-03-09T21:49:49.554Z,98453.00
2019-03-09T21:52:25.294Z,98450.00
2019-03-09T21:54:54.973Z,98444.00
2019-03-09T21:57:30.809Z,98467.00
2019-03-09T22:00:00.370Z,98438.00
2019-03-09T22:02:36.382Z,98442.00
2019-03-09T22:05:10.147Z,98426.00
2019-03-09T22:07:45.888Z,98427.00
2019-03-09T22:10:22.788Z,98423.00
2019-03-09T22:12:58.890Z,98419.00
2019-03-09T22:15:35.191Z,98406.00
2019-03-09T22:18:12.130Z,98412.00
2019-03-09T22:20:48.882Z,98395.00
2019-03-09T22:23:25.361Z,98396.00
2019-03-09T22:25:54.806Z,98403.00
2019-03-09T22:28:31.566Z,98394.00
2019-03-09T22:31:08.377Z,98389.00
2019-03-09T22:33:44.319Z,98384.00
2019-03-09T22:36:20.976Z,98380.00
2019-03-09T22:38:50.425Z,98394.00
2019-03-09T22:41:26.629Z,98395.00
2019-03-09T22:44:02.165Z,98318.00
2019-03-09T22:46:38.712Z,98450.00
2019-03-09T22:49:14.843Z,98383.00
2019-03-09T22:51:51.285Z,98385.00
2019-03-09T22:54:20.948Z,98383.00
2019-03-09T22:56:57.290Z,98379.00
2019-03-09T22:59:39.899Z,98374.00
2019-03-09T23:02:16.005Z,98373.00
2019-03-09T23:04:51.793Z,98371.00
2019-03-09T23:07:27.485Z,98380.00
2019-03-09T23:09:56.947Z,98373.00
2019-03-09T23:12:33.053Z,98375.00
2019-03-09T23:15:02.513Z,98372.00
2019-03-09T23:17:38.171Z,98368.00
2019-03-09T23:20:17.498Z,98380.00
2019-03-09T23:22:53.679Z,98372.00
2019-03-09T23:25:23.254Z,98380.00
2019-03-09T23:27:59.356Z,98385.00
2019-03-09T23:30:29.016Z,98383.00
2019-03-09T23:33:04.834Z,98389.00
2019-03-09T23:35:41.358Z,98403.00
2019-03-09T23:38:18.099Z,98403.00
2019-03-09T23:40:47.680Z,98418.00
2019-03-09T23:43:24.238Z,98425.00
2019-03-09T23:46:00.777Z,98421.00
2019-03-09T23:48:37.387Z,98430.00
2019-03-09T23:51:07.144Z,98441.00
2019-03-09T23:53:42.998Z,98452.00
2019-03-09T23:56:13.682Z,98460.00
2019-03-09T23:58:43.331Z,98472.00
